NLWF

Details ICAO NLWF (FUT)
Name Point Vele
Region Wallis and Futuna
Timezone Unknown (UTC+0.0)
Plans Departing 1
Arriving 1
Stats Elevation 20 ft / 6 m (AMSL)
Location -14.311464° -178.066110°
Runways 1
Magnetic Variation 11.738° E
Sunrise 2017-12-16 17:20:28 UTC / 2017-12-16 17:20:28 Local
Sunset 2017-12-17 06:18:34 UTC / 2017-12-17 06:18:34 Local
Advertisement - Login to hide

Runways

ID Width Length Bearing (true) Bearing (mag) Surface Threshold Offset Overrun Length
08 141 ft / 43 m 4,006 ft / 1,221 m 83.70° 71.96° Grass 0 ft / 0 m 0 ft / 0 m
26 141 ft / 43 m 4,006 ft / 1,221 m 263.70° 251.96° Grass 0 ft / 0 m 0 ft / 0 m

Map

Weather


0- 5 10 15 20 25 30 35+ Temperature / ° C

Clouds and Precipitation
Forecast for 2017-12-16 18:00 UTC. Updated 2 hours ago

Ground ~20,000 ft ~40,000 ft Winds

METAR

Not found

TAF

TAF NLWF 161700Z 1618/1718 09008KT 9999 SCT020 BKN045 TEMPO 1620/1718 VRB10G20KT 4000 SHRA BKN014 SCT018CB TEMPO 1618/1621 2000 SHRA BKN012 SCT020CB
Warning: Do not use this data for real-world aviation or navigation. No guarantee of current accuracy is given.